Latest Weather Observations for Wattamolla

IDN60901

Issued at 11:31 am EST Saturday 29 April 2017 (issued every 10 minutes, with the page automatically refreshed every 10 minutes)

About weather observations | Map of Sydney area stations | Latest observations for Sydney area | Other Formats
Station Details ID: 066208 Name: WATTAMOLLA AWS Lat: -34.14 Lon: 151.12 Height: 44.0 m
Data from the previous 72 hours. | See also: Recent months for locations in New South Wales
Date/Time
EST
Temp
°C
App
Temp
°C
Dew
Point
°C
Rel
Hum
%
Delta-T
°C
Wind Press
QNH
hPa
Press
MSL
hPa
Rain since
9am
mm
Dir  Spd
km/h
Gust
km/h
Spd
kts
Gust
kts
29/11:30am - - - - - SSE 15 19 8 10 - - -
29/11:00am - - - - - SSE 15 19 8 10 - - -
29/10:30am - - - - - S 13 19 7 10 - - -
29/10:00am - - - - - SSE 13 19 7 10 - - -
29/09:30am - - - - - SSE 13 17 7 9 - - -
29/09:00am - - - - - SSW 7 13 4 7 - - -
29/08:30am - - - - - W 11 17 6 9 - - -
29/08:00am - - - - - W 15 19 8 10 - - -
29/07:30am - - - - - WNW 13 19 7 10 - - -
29/07:00am - - - - - WNW 17 20 9 11 - - -
29/06:30am - - - - - W 20 24 11 13 - - -
29/06:00am - - - - - WNW 19 24 10 13 - - -
29/05:30am - - - - - W 20 26 11 14 - - -
29/05:00am - - - - - W 26 33 14 18 - - -
29/04:30am - - - - - WNW 22 30 12 16 - - -
29/04:00am - - - - - WNW 20 28 11 15 - - -
29/03:30am - - - - - WNW 20 30 11 16 - - -
29/03:00am - - - - - WNW 22 32 12 17 - - -
29/02:30am - - - - - WNW 19 28 10 15 - - -
29/02:00am - - - - - WNW 22 32 12 17 - - -
29/01:30am - - - - - WNW 20 28 11 15 - - -
29/01:00am - - - - - WNW 20 28 11 15 - - -
29/12:30am - - - - - WNW 19 26 10 14 - - -
29/12:00am - - - - - WNW 19 26 10 14 - - -
 
Date/Time
EST
Temp
°C
App
Temp
°C
Dew
Point
°C
Rel
Hum
%
Delta-T
°C
Wind Press
QNH
hPa
Press
MSL
hPa
Rain since
9am
mm
Dir  Spd
km/h
Gust
km/h
Spd
kts
Gust
kts
28/11:30pm - - - - - WNW 15 17 8 9 - - -
28/11:00pm - - - - - WNW 19 24 10 13 - - -
28/10:30pm - - - - - NW 20 26 11 14 - - -
28/10:00pm - - - - - NW 17 19 9 10 - - -
28/09:30pm - - - - - NW 17 17 9 9 - - -
28/09:00pm - - - - - NW 13 15 7 8 - - -
28/08:30pm - - - - - WNW 11 13 6 7 - - -
28/08:00pm - - - - - WNW 9 13 5 7 - - -
28/07:30pm - - - - - WNW 7 11 4 6 - - -
28/07:00pm - - - - - SSW 9 15 5 8 - - -
28/06:30pm - - - - - S 15 20 8 11 - - -
28/06:00pm - - - - - S 13 17 7 9 - - -
28/05:30pm - - - - - SSE 19 26 10 14 - - -
28/05:00pm - - - - - SSE 20 28 11 15 - - -
28/04:30pm - - - - - SSE 22 30 12 16 - - -
28/04:00pm - - - - - SSE 20 26 11 14 - - -
28/03:30pm - - - - - SSE 20 26 11 14 - - -
28/03:00pm - - - - - SSE 17 22 9 12 - - -
28/02:30pm - - - - - SSE 20 30 11 16 - - -
28/02:00pm - - - - - SSE 20 28 11 15 - - -
28/01:30pm - - - - - SSE 24 30 13 16 - - -
28/01:00pm - - - - - SSE 24 32 13 17 - - -
28/12:30pm - - - - - SSE 20 33 11 18 - - -
28/12:00pm - - - - - SSE 22 32 12 17 - - -
28/11:30am - - - - - S 20 30 11 16 - - -
28/11:00am - - - - - SSE 30 39 16 21 - - -
28/10:30am - - - - - SSE 32 39 17 21 - - -
28/10:00am - - - - - SSE 32 39 17 21 - - -
28/09:30am - - - - - SSE 30 41 16 22 - - -
28/09:00am - - - - - SSE 35 43 19 23 - - -
28/08:30am - - - - - SSE 26 37 14 20 - - -
28/08:03am - - - - - SSE 28 46 15 25 - - -
28/08:00am - - - - - SSE 28 41 15 22 - - -
28/07:38am - - - - - SSE 30 48 16 26 - - -
28/07:30am - - - - - SSE 33 48 18 26 - - -
28/07:00am - - - - - SSE 37 48 20 26 - - -
28/06:30am - - - - - SSE 37 48 20 26 - - -
28/06:00am - - - - - SSE 35 50 19 27 - - -
28/05:30am - - - - - SSE 33 48 18 26 - - -
28/05:14am - - - - - SSE 33 54 18 29 - - -
28/05:00am - - - - - SSE 37 52 20 28 - - -
28/04:30am - - - - - SSE 35 50 19 27 - - -
28/04:09am - - - - - S 30 48 16 26 - - -
28/04:00am - - - - - SSE 32 46 17 25 - - -
28/03:30am - - - - - SSE 32 46 17 25 - - -
28/03:00am - - - - - SSE 35 54 19 29 - - -
28/02:30am - - - - - SSE 39 57 21 31 - - -
28/02:28am - - - - - SSE 39 57 21 31 - - -
28/02:00am - - - - - SSE 46 59 25 32 - - -
28/01:34am - - - - - SSE 46 65 25 35 - - -
28/01:30am - - - - - SSE 48 61 26 33 - - -
28/01:05am - - - - - SSE 52 70 28 38 - - -
28/01:00am - - - - - SSE 56 70 30 38 - - -
28/12:35am - - - - - SSE 50 70 27 38 - - -
28/12:30am - - - - - SSE 52 65 28 35 - - -
28/12:00am - - - - - SSE 46 70 25 38 - - -
 
Date/Time
EST
Temp
°C
App
Temp
°C
Dew
Point
°C
Rel
Hum
%
Delta-T
°C
Wind Press
QNH
hPa
Press
MSL
hPa
Rain since
9am
mm
Dir  Spd
km/h
Gust
km/h
Spd
kts
Gust
kts
27/11:30pm - - - - - SSE 56 74 30 40 - - -
27/11:00pm - - - - - SSE 46 65 25 35 - - -
27/10:30pm - - - - - SSE 41 59 22 32 - - -
27/10:08pm - - - - - SSE 37 56 20 30 - - -
27/10:00pm - - - - - SSE 41 57 22 31 - - -
27/09:30pm - - - - - SSE 39 59 21 32 - - -
27/09:00pm - - - - - S 28 52 15 28 - - -
27/08:31pm - - - - - SSE 33 52 18 28 - - -
27/08:30pm - - - - - SSE 35 52 19 28 - - -
27/08:00pm - - - - - S 32 56 17 30 - - -
27/07:44pm - - - - - S 30 48 16 26 - - -
27/07:30pm - - - - - S 28 41 15 22 - - -
27/07:00pm - - - - - SSW 24 39 13 21 - - -
27/06:40pm - - - - - S 43 65 23 35 - - -
27/06:30pm - - - - - S 52 65 28 35 - - -
27/06:22pm - - - - - SSE 44 61 24 33 - - -
27/06:04pm - - - - - SSE 35 54 19 29 - - -
27/06:00pm - - - - - SSE 39 54 21 29 - - -
27/05:30pm - - - - - S 44 57 24 31 - - -
27/05:15pm - - - - - S 44 63 24 34 - - -
27/05:00pm - - - - - S 44 61 24 33 - - -
27/04:36pm - - - - - S 39 57 21 31 - - -
27/04:30pm - - - - - S 43 57 23 31 - - -
27/04:00pm - - - - - S 46 59 25 32 - - -
27/03:30pm - - - - - S 52 63 28 34 - - -
27/03:00pm - - - - - S 52 63 28 34 - - -
27/02:30pm - - - - - S 50 61 27 33 - - -
27/02:00pm - - - - - S 52 63 28 34 - - -
27/01:30pm - - - - - S 52 67 28 36 - - -
27/01:00pm - - - - - S 48 57 26 31 - - -
27/12:37pm - - - - - S 39 59 21 32 - - -
27/12:30pm - - - - - SSE 37 50 20 27 - - -
27/12:00pm - - - - - S 37 56 20 30 - - -
27/11:30am - - - - - S 33 54 18 29 - - -
27/11:08am - - - - - S 33 54 18 29 - - -
27/11:00am - - - - - SSE 37 50 20 27 - - -
27/10:30am - - - - - S 35 52 19 28 - - -
27/10:00am - - - - - S 30 48 16 26 - - -
27/09:59am - - - - - S 28 48 15 26 - - -
27/09:30am - - - - - S 24 41 13 22 - - -
27/09:00am - - - - - SSW 20 35 11 19 - - -
27/08:30am - - - - - W 17 26 9 14 - - -
27/08:00am - - - - - W 20 28 11 15 - - -
27/07:30am - - - - - WNW 19 28 10 15 - - -
27/07:00am - - - - - W 22 30 12 16 - - -
27/06:30am - - - - - W 24 33 13 18 - - -
27/06:00am - - - - - W 20 26 11 14 - - -
27/05:30am - - - - - W 20 30 11 16 - - -
27/05:00am - - - - - WSW 19 30 10 16 - - -
27/04:30am - - - - - SW 19 30 10 16 - - -
27/04:08am - - - - - SW 28 56 15 30 - - -
27/04:06am - - - - - WSW 24 48 13 26 - - -
27/04:00am - - - - - W 22 28 12 15 - - -
27/03:30am - - - - - W 22 30 12 16 - - -
27/03:00am - - - - - W 20 28 11 15 - - -
27/02:30am - - - - - W 19 30 10 16 - - -
27/02:00am - - - - - WSW 20 28 11 15 - - -
27/01:30am - - - - - SSW 22 50 12 27 - - -
27/01:25am - - - - - S 33 50 18 27 - - -
27/01:11am - - - - - SSW 24 48 13 26 - - -
27/01:00am - - - - - W 15 30 8 16 - - -
27/12:32am - - - - - S 35 52 19 28 - - -
27/12:30am - - - - - S 39 52 21 28 - - -
27/12:07am - - - - - S 46 65 25 35 - - -
27/12:00am - - - - - S 52 61 28 33 - - -
 
Date/Time
EST
Temp
°C
App
Temp
°C
Dew
Point
°C
Rel
Hum
%
Delta-T
°C
Wind Press
QNH
hPa
Press
MSL
hPa
Rain since
9am
mm
Dir  Spd
km/h
Gust
km/h
Spd
kts
Gust
kts
26/11:37pm - - - - - S 44 61 24 33 - - -
26/11:30pm - - - - - S 48 65 26 35 - - -
26/11:25pm - - - - - S 44 61 24 33 - - -
26/11:00pm - - - - - S 32 52 17 28 - - -
26/10:43pm - - - - - S 28 46 15 25 - - -
26/10:30pm - - - - - S 24 39 13 21 - - -
26/10:00pm - - - - - SSW 19 28 10 15 - - -
26/09:30pm - - - - - SW 20 32 11 17 - - -
26/09:00pm - - - - - SW 26 35 14 19 - - -
26/08:30pm - - - - - WSW 20 39 11 21 - - -
26/08:00pm - - - - - WSW 19 28 10 15 - - -
26/07:30pm - - - - - W 22 32 12 17 - - -
26/07:00pm - - - - - W 26 33 14 18 - - -
26/06:30pm - - - - - WNW 20 32 11 17 - - -
26/06:00pm - - - - - W 19 28 10 15 - - -
26/05:30pm - - - - - WNW 17 28 9 15 - - -
26/05:00pm - - - - - NW 22 35 12 19 - - -
26/04:30pm - - - - - NW 28 39 15 21 - - -
26/04:00pm - - - - - NW 28 35 15 19 - - -
26/03:30pm - - - - - WNW 37 57 20 31 - - -
26/03:09pm - - - - - W 28 50 15 27 - - -
26/03:00pm - - - - - W 33 54 18 29 - - -
26/02:35pm - - - - - WNW 17 61 9 33 - - -
26/02:30pm - - - - - WNW 13 17 7 9 - - -
26/02:00pm - - - - - SW 11 19 6 10 - - -
26/01:30pm - - - - - WSW 17 26 9 14 - - -
26/01:00pm - - - - - NW 22 35 12 19 - - -
26/12:30pm - - - - - NW 24 37 13 20 - - -
26/12:00pm - - - - - NW 28 39 15 21 - - -

Latest Capital City Observations: Canberra | Sydney | Melbourne | Brisbane | Adelaide | Perth | Hobart | Darwin

Other Formats:

Comma delimited format used in spreadsheet applications
http://www.bom.gov.au/fwo/IDN60901/IDN60901.95752.axf

JavaScript Object Notation format (JSON) in row-major order
http://www.bom.gov.au/fwo/IDN60901/IDN60901.95752.json